Time;durP1;ratioP1;P1;durP2;ratioP2;P2;SDS_P1;SDS_P2;PMS_P1;PMS_P2;Temp;Humidity;BMP_temperature;BMP_pressure;BME280_temperature;BME280_humidity;BME280_pressure;Samples;Min_cycle;Max_cycle;Signal;HPM_P1;HPM_P2
2022/06/28 00:00:14;;;;;;;;;;;;;;;28.80;42.51;94724.53;5018362;28;7129;-63
2022/06/28 00:02:45;;;;;;;;;;;;;;;28.81;42.23;94726.03;5052779;28;6989;-62
2022/06/28 00:05:11;;;;;;;;;;;;;;;28.81;41.67;94723.28;5062973;28;8844;-63
2022/06/28 00:07:37;;;;;;;;;;;;;;;28.82;42.08;94718.47;5063696;28;6992;-63
2022/06/28 00:10:05;;;;;;;;;;;;;;;28.81;42.30;94726.03;5083331;28;9414;-63
2022/06/28 00:12:35;;;;;;;;;;;;;;;28.80;41.49;94715.47;5068349;28;9492;-63
2022/06/28 00:17:46;;;;;;;;;;;;;;;28.80;42.02;94710.69;5067363;28;9123;-63
2022/06/28 00:20:14;;;;;;;;;;;;;;;28.80;41.80;94705.16;5067293;28;9193;-63
2022/06/28 00:22:42;;;;;;;;;;;;;;;28.80;42.26;94704.38;5068263;28;7214;-63
2022/06/28 00:25:20;;;;;;;;;;;;;;;28.81;42.05;94712.19;5083844;28;7160;-63
2022/06/28 00:27:48;;;;;;;;;;;;;;;28.79;41.78;94703.66;5087189;28;6979;-62
2022/06/28 00:30:21;;;;;;;;;;;;;;;28.80;42.28;94694.06;5070004;28;6978;-62
2022/06/28 00:32:47;;;;;;;;;;;;;;;28.81;42.00;94697.59;5072873;28;7345;-63
2022/06/28 00:35:22;;;;;;;;;;;;;;;28.79;42.06;94692.59;5071469;28;9458;-63
2022/06/28 00:37:55;;;;;;;;;;;;;;;28.79;42.39;94689.81;5072450;28;7215;-62
2022/06/28 00:40:26;;;;;;;;;;;;;;;28.79;42.14;94692.59;5088218;28;7474;-62
2022/06/28 00:42:57;;;;;;;;;;;;;;;28.80;42.19;94687.78;5072069;28;7148;-63
2022/06/28 00:45:32;;;;;;;;;;;;;;;28.79;41.65;94689.06;5087818;28;9174;-62
2022/06/28 00:47:58;;;;;;;;;;;;;;;28.77;42.15;94680.53;5065095;28;7666;-62
2022/06/28 00:50:30;;;;;;;;;;;;;;;28.76;41.85;94696.41;5089152;28;7263;-62
2022/06/28 00:53:11;;;;;;;;;;;;;;;28.77;41.76;94700.69;5056870;28;7379;-62
2022/06/28 00:55:39;;;;;;;;;;;;;;;28.77;41.80;94694.38;5065912;28;9092;-63
2022/06/28 00:58:05;;;;;;;;;;;;;;;28.77;41.76;94697.91;5066757;28;7319;-63
2022/06/28 01:00:37;;;;;;;;;;;;;;;28.77;42.10;94706.22;5068709;28;6987;-63
2022/06/28 01:03:05;;;;;;;;;;;;;;;28.77;41.91;94711.00;5071234;28;6973;-63
2022/06/28 01:05:31;;;;;;;;;;;;;;;28.75;42.02;94716.31;5064831;28;9211;-63
2022/06/28 01:07:59;;;;;;;;;;;;;;;28.76;41.77;94721.31;5084112;28;7392;-63
2022/06/28 01:10:26;;;;;;;;;;;;;;;28.76;41.79;94724.09;5083746;28;9003;-62
2022/06/28 01:12:54;;;;;;;;;;;;;;;28.77;42.07;94719.31;5068577;28;9436;-63
2022/06/28 01:15:27;;;;;;;;;;;;;;;28.74;41.93;94718.31;5068540;28;7447;-63
2022/06/28 01:17:55;;;;;;;;;;;;;;;28.77;42.01;94720.06;5068866;28;9205;-63
2022/06/28 01:20:22;;;;;;;;;;;;;;;28.77;42.07;94713.75;5066969;28;7012;-63
2022/06/28 01:22:50;;;;;;;;;;;;;;;28.77;41.82;94711.75;5082850;28;7191;-63
2022/06/28 01:25:16;;;;;;;;;;;;;;;28.76;41.68;94713.00;5080783;28;7628;-63
2022/06/28 01:27:42;;;;;;;;;;;;;;;28.73;41.94;94708.50;5067005;28;6988;-63
2022/06/28 01:30:11;;;;;;;;;;;;;;;28.73;42.18;94700.22;5064883;28;7237;-63
2022/06/28 01:32:38;;;;;;;;;;;;;;;28.72;41.51;94701.50;5082675;28;8757;-63
2022/06/28 01:35:05;;;;;;;;;;;;;;;28.73;42.25;94702.25;5082394;28;9218;-62
2022/06/28 01:37:33;;;;;;;;;;;;;;;28.72;42.16;94709.03;5082264;28;7871;-63
2022/06/28 01:40:00;;;;;;;;;;;;;;;28.71;42.23;94713.09;5067261;28;9061;-63
2022/06/28 01:42:30;;;;;;;;;;;;;;;28.71;42.03;94719.34;5080677;28;7248;-63
2022/06/28 01:45:01;;;;;;;;;;;;;;;28.70;42.01;94712.34;5063735;28;7853;-63
2022/06/28 01:47:29;;;;;;;;;;;;;;;28.69;42.35;94710.06;5067412;28;8790;-62
2022/06/28 01:49:55;;;;;;;;;;;;;;;28.68;41.74;94712.13;5083258;28;7736;-62
2022/06/28 01:52:22;;;;;;;;;;;;;;;28.68;42.16;94722.44;5082809;28;9066;-62
2022/06/28 01:54:50;;;;;;;;;;;;;;;28.67;41.84;94723.69;5066591;28;7746;-62
2022/06/28 01:57:16;;;;;;;;;;;;;;;28.67;42.03;94718.91;5067255;28;7070;-63
2022/06/28 01:59:43;;;;;;;;;;;;;;;28.68;41.73;94714.88;5064279;28;7280;-62
2022/06/28 02:02:09;;;;;;;;;;;;;;;28.68;42.01;94711.38;5067365;28;8683;-63
2022/06/28 02:04:36;;;;;;;;;;;;;;;28.67;41.61;94702.31;5082115;28;7349;-63
2022/06/28 02:07:02;;;;;;;;;;;;;;;28.66;41.68;94695.28;5066004;28;7115;-62
2022/06/28 02:09:29;;;;;;;;;;;;;;;28.67;41.85;94707.09;5064796;28;7670;-63
2022/06/28 02:11:56;;;;;;;;;;;;;;;28.64;41.83;94700.59;5066692;28;7111;-62
2022/06/28 02:14:22;;;;;;;;;;;;;;;28.64;41.68;94702.63;5065751;28;9118;-62
2022/06/28 02:16:50;;;;;;;;;;;;;;;28.64;42.20;94694.31;5069565;28;6984;-62
2022/06/28 02:19:25;;;;;;;;;;;;;;;28.64;42.03;94691.53;5071918;28;7320;-62
2022/06/28 02:21:54;;;;;;;;;;;;;;;28.64;42.20;94678.47;5071884;28;6974;-63
2022/06/28 02:24:26;;;;;;;;;;;;;;;28.63;41.94;94678.97;5069510;28;9150;-63
2022/06/28 02:26:52;;;;;;;;;;;;;;;28.62;41.80;94681.00;5069852;28;8723;-63
2022/06/28 02:29:28;;;;;;;;;;;;;;;28.62;42.35;94691.31;5087498;28;6991;-63
2022/06/28 02:31:54;;;;;;;;;;;;;;;28.61;42.01;94681.50;5087914;28;9514;-62
2022/06/28 02:40:23;;;;;;;;;;;;;;;28.60;41.87;94664.16;5064616;28;9335;-63
2022/06/28 02:42:56;;;;;;;;;;;;;;;28.60;41.92;94675.22;5087688;28;7593;-63
2022/06/28 02:45:32;;;;;;;;;;;;;;;28.60;41.95;94668.97;5086912;28;8789;-62
2022/06/28 02:48:35;;;;;;;;;;;;;;;28.60;41.81;94677.25;5070415;28;7194;-63
2022/06/28 02:51:02;;;;;;;;;;;;;;;28.60;41.94;94691.09;5023911;28;7495;-63
2022/06/28 02:53:28;;;;;;;;;;;;;;;28.60;41.66;94697.38;5028124;28;7703;-63
2022/06/28 02:55:54;;;;;;;;;;;;;;;28.59;42.18;94695.88;5027101;28;7236;-63
2022/06/28 02:58:20;;;;;;;;;;;;;;;28.59;42.11;94697.91;5025842;28;7568;-62
2022/06/28 03:00:46;;;;;;;;;;;;;;;28.57;41.65;94709.50;5024604;28;8966;-63
2022/06/28 03:03:16;;;;;;;;;;;;;;;28.57;41.90;94700.41;5029070;28;7220;-62
2022/06/28 03:05:51;;;;;;;;;;;;;;;28.55;42.05;94703.72;5024833;28;9673;-63
2022/06/28 03:08:17;;;;;;;;;;;;;;;28.56;42.18;94702.41;5024897;28;7246;-63
2022/06/28 03:11:12;;;;;;;;;;;;;;;28.56;41.53;94694.13;5024821;28;7272;-63
2022/06/28 03:13:38;;;;;;;;;;;;;;;28.55;41.80;94683.59;4930874;29;7080;-62
2022/06/28 03:16:04;;;;;;;;;;;;;;;28.54;41.63;94682.06;4925438;29;7280;-63
2022/06/28 03:18:30;;;;;;;;;;;;;;;28.53;41.67;94675.06;4927045;29;9590;-63
2022/06/28 03:20:56;;;;;;;;;;;;;;;28.53;42.13;94669.53;4926195;29;7625;-62
2022/06/28 03:23:22;;;;;;;;;;;;;;;28.53;41.88;94675.81;4926541;29;7164;-63
2022/06/28 03:26:13;;;;;;;;;;;;;;;28.54;42.07;94666.22;4944741;28;7219;-62
2022/06/28 03:28:53;;;;;;;;;;;;;;;28.53;41.93;94664.75;4969738;28;7202;-62
2022/06/28 03:31:39;;;;;;;;;;;;;;;28.53;41.67;94666.75;4969278;28;7646;-62
2022/06/28 03:34:05;;;;;;;;;;;;;;;28.51;41.61;94666.53;4970091;28;7240;-63
2022/06/28 03:36:31;;;;;;;;;;;;;;;28.52;42.14;94674.31;4966793;28;9258;-63
2022/06/28 03:38:57;;;;;;;;;;;;;;;28.51;41.91;94689.44;4968869;28;6961;-63
2022/06/28 03:41:23;;;;;;;;;;;;;;;28.53;41.60;94697.19;4965919;28;6992;-63
2022/06/28 03:43:51;;;;;;;;;;;;;;;28.50;42.08;94696.22;4948796;28;7494;-63
2022/06/28 03:46:20;;;;;;;;;;;;;;;28.49;41.85;94694.75;4963713;28;9061;-63
2022/06/28 03:48:47;;;;;;;;;;;;;;;28.52;42.00;94690.16;4968409;28;9338;-63
2022/06/28 03:51:16;;;;;;;;;;;;;;;28.51;41.86;94686.66;5075250;28;7498;-63
2022/06/28 03:53:43;;;;;;;;;;;;;;;28.50;41.79;94699.00;5070255;28;7291;-62
2022/06/28 03:56:11;;;;;;;;;;;;;;;28.50;41.81;94703.75;5090305;28;9936;-63
2022/06/28 03:58:37;;;;;;;;;;;;;;;28.48;41.85;94701.53;5073836;28;7298;-63
2022/06/28 04:01:03;;;;;;;;;;;;;;;28.46;41.80;94698.53;5084998;28;8675;-63
2022/06/28 04:03:38;;;;;;;;;;;;;;;28.46;42.09;94695.78;5084831;28;7206;-63
2022/06/28 04:06:05;;;;;;;;;;;;;;;28.45;42.02;94691.50;5089658;28;8794;-62
2022/06/28 04:08:38;;;;;;;;;;;;;;;28.45;42.09;94685.97;5090672;28;8642;-62
2022/06/28 04:11:16;;;;;;;;;;;;;;;28.45;42.06;94697.03;5086248;28;9345;-63
2022/06/28 04:14:29;;;;;;;;;;;;;;;28.46;41.88;94695.00;5081862;28;7934;-63
2022/06/28 04:17:20;;;;;;;;;;;;;;;28.45;42.02;94697.03;5007680;28;7235;-63
2022/06/28 04:20:02;;;;;;;;;;;;;;;28.47;41.79;94705.56;4994996;28;9139;-62
2022/06/28 04:22:42;;;;;;;;;;;;;;;28.42;41.94;94705.63;4986368;28;7011;-62
2022/06/28 04:25:35;;;;;;;;;;;;;;;28.41;42.04;94710.41;4996376;28;8803;-62
2022/06/28 04:28:09;;;;;;;;;;;;;;;28.42;41.81;94719.47;4996235;28;9107;-62
2022/06/28 04:30:46;;;;;;;;;;;;;;;28.42;41.92;94719.47;5003960;28;7271;-62
2022/06/28 04:33:22;;;;;;;;;;;;;;;28.43;41.76;94709.91;5010193;28;9170;-62
2022/06/28 04:35:48;;;;;;;;;;;;;;;28.42;41.99;94728.53;4990154;28;7218;-62
2022/06/28 04:38:14;;;;;;;;;;;;;;;28.41;41.83;94724.25;4999088;28;7227;-62
2022/06/28 04:40:42;;;;;;;;;;;;;;;28.43;42.13;94732.78;4992280;28;7211;-62
2022/06/28 04:43:10;;;;;;;;;;;;;;;28.41;41.93;94721.47;4983108;28;7164;-63
2022/06/28 04:45:51;;;;;;;;;;;;;;;28.40;41.90;94714.47;5010305;28;9187;-62
2022/06/28 04:48:26;;;;;;;;;;;;;;;28.39;41.95;94707.44;4985654;28;7480;-62
2022/06/28 04:50:55;;;;;;;;;;;;;;;28.38;41.71;94708.72;5009108;28;9075;-62
2022/06/28 04:53:23;;;;;;;;;;;;;;;28.33;42.22;94688.16;5014744;28;7814;-63
2022/06/28 04:55:52;;;;;;;;;;;;;;;28.33;41.83;94674.31;5068416;28;7559;-63
2022/06/28 04:58:17;;;;;;;;;;;;;;;28.32;42.43;94667.25;5086535;28;6968;-63
2022/06/28 05:00:43;;;;;;;;;;;;;;;28.32;41.95;94661.72;5087251;28;7285;-63
2022/06/28 05:03:11;;;;;;;;;;;;;;;28.31;42.06;94659.50;5071358;28;7676;-63
2022/06/28 05:05:53;;;;;;;;;;;;;;;28.30;41.87;94653.22;5070789;28;7235;-63
2022/06/28 05:08:57;;;;;;;;;;;;;;;28.30;41.86;94652.47;5071996;28;9062;-63
2022/06/28 05:11:23;;;;;;;;;;;;;;;28.30;42.14;94642.16;5006238;28;8825;-63
2022/06/28 05:13:51;;;;;;;;;;;;;;;28.29;41.76;94639.91;4987894;28;7297;-62
2022/06/28 05:16:17;;;;;;;;;;;;;;;28.28;42.16;94630.09;4983329;28;8784;-63
2022/06/28 05:18:43;;;;;;;;;;;;;;;28.29;41.98;94617.78;4995247;28;7267;-62
2022/06/28 05:21:19;;;;;;;;;;;;;;;28.27;42.47;94606.50;5002167;28;9444;-61
2022/06/28 05:23:54;;;;;;;;;;;;;;;28.28;41.93;94605.22;4992935;28;7020;-62
2022/06/28 05:26:24;;;;;;;;;;;;;;;28.30;42.60;94605.44;4985905;28;7215;-61
2022/06/28 05:29:09;;;;;;;;;;;;;;;28.28;42.00;94613.50;4987528;28;8485;-61
2022/06/28 05:32:06;;;;;;;;;;;;;;;28.28;42.05;94616.28;4980897;28;9390;-62
2022/06/28 05:34:36;;;;;;;;;;;;;;;28.28;41.82;94605.22;4970304;28;8780;-61
2022/06/28 05:37:11;;;;;;;;;;;;;;;28.27;42.56;94609.25;4965883;28;6976;-62
2022/06/28 05:40:06;;;;;;;;;;;;;;;28.25;42.07;94609.75;4982054;28;7853;-62
2022/06/28 05:42:41;;;;;;;;;;;;;;;28.24;42.43;94607.53;4964484;28;7343;-62
2022/06/28 05:45:08;;;;;;;;;;;;;;;28.27;42.62;94606.50;4985778;28;7053;-61
2022/06/28 05:47:53;;;;;;;;;;;;;;;28.25;42.19;94603.50;4990841;28;7013;-61
2022/06/28 05:50:19;;;;;;;;;;;;;;;28.24;42.37;94599.97;4982608;28;7182;-61
2022/06/28 05:52:55;;;;;;;;;;;;;;;28.26;42.37;94613.28;4983537;28;7647;-61
2022/06/28 05:55:21;;;;;;;;;;;;;;;28.25;42.47;94606.28;4999478;28;8392;-61
2022/06/28 05:57:47;;;;;;;;;;;;;;;28.19;42.57;94603.56;4993774;28;8744;-61
2022/06/28 06:00:16;;;;;;;;;;;;;;;28.18;42.55;94595.81;4983443;28;8775;-61
2022/06/28 06:02:42;;;;;;;;;;;;;;;28.17;42.36;94583.22;4977275;28;8193;-61
2022/06/28 06:05:09;;;;;;;;;;;;;;;28.17;41.88;94580.47;4970141;28;6861;-61
2022/06/28 06:07:35;;;;;;;;;;;;;;;28.17;41.97;94566.63;4992289;28;9050;-61
2022/06/28 06:10:06;;;;;;;;;;;;;;;28.20;41.81;94568.38;4993981;28;9290;-61
2022/06/28 06:12:32;;;;;;;;;;;;;;;28.19;41.59;94564.09;5075641;28;7204;-62
2022/06/28 06:15:00;;;;;;;;;;;;;;;28.17;41.52;94566.63;5064017;28;7188;-62
2022/06/28 06:17:26;;;;;;;;;;;;;;;28.18;41.70;94562.63;5063964;28;7140;-63
2022/06/28 06:19:54;;;;;;;;;;;;;;;28.19;41.56;94558.56;5064769;28;7295;-63
2022/06/28 06:22:22;;;;;;;;;;;;;;;28.18;41.56;94546.78;5081578;28;9119;-63
2022/06/28 06:25:07;;;;;;;;;;;;;;;28.18;41.50;94544.00;5084432;28;7311;-62
2022/06/28 06:27:34;;;;;;;;;;;;;;;28.19;41.42;94542.72;5082340;28;7268;-63
2022/06/28 06:30:36;;;;;;;;;;;;;;;28.19;41.30;94528.13;5063944;28;7242;-62
2022/06/28 06:33:02;;;;;;;;;;;;;;;28.18;41.05;94513.59;5069125;28;9044;-62
2022/06/28 06:35:37;;;;;;;;;;;;;;;28.20;41.53;94526.88;5069473;28;7262;-63
2022/06/28 06:38:34;;;;;;;;;;;;;;;28.20;41.37;94535.94;5069839;28;9464;-62
2022/06/28 06:41:24;;;;;;;;;;;;;;;28.21;41.32;94547.72;4990012;28;8754;-62
2022/06/28 06:43:59;;;;;;;;;;;;;;;28.22;41.29;94546.47;4979358;28;7211;-62
2022/06/28 06:46:36;;;;;;;;;;;;;;;28.24;41.18;94541.16;4980523;28;7078;-63
2022/06/28 06:49:21;;;;;;;;;;;;;;;28.23;41.23;94531.38;4993352;28;7211;-62
2022/06/28 06:52:02;;;;;;;;;;;;;;;28.22;41.58;94536.16;4999360;28;9213;-62
2022/06/28 06:54:28;;;;;;;;;;;;;;;28.21;41.36;94522.81;4975507;28;7172;-62
2022/06/28 06:56:54;;;;;;;;;;;;;;;28.21;41.70;94525.59;4981440;28;9033;-62
2022/06/28 06:59:20;;;;;;;;;;;;;;;28.18;41.46;94515.59;4984447;28;7249;-62
2022/06/28 07:01:46;;;;;;;;;;;;;;;28.21;41.37;94512.50;4981703;28;9484;-63
2022/06/28 07:04:15;;;;;;;;;;;;;;;28.19;41.54;94528.13;4971094;28;7278;-63
2022/06/28 07:06:42;;;;;;;;;;;;;;;28.20;41.52;94551.78;4973198;28;7428;-63
2022/06/28 07:09:10;;;;;;;;;;;;;;;28.21;41.52;94556.00;4990179;28;7190;-63
2022/06/28 07:12:07;;;;;;;;;;;;;;;28.20;41.63;94549.75;4977028;28;9159;-62
2022/06/28 07:14:42;;;;;;;;;;;;;;;28.20;41.20;94537.94;4970816;28;7194;-62
2022/06/28 07:17:10;;;;;;;;;;;;;;;28.18;41.84;94524.66;4967806;28;9539;-61
2022/06/28 07:19:38;;;;;;;;;;;;;;;28.19;41.38;94515.06;5004628;28;7232;-62
2022/06/28 07:22:27;;;;;;;;;;;;;;;28.22;41.09;94524.34;5027588;28;7149;-62
2022/06/28 07:25:29;;;;;;;;;;;;;;;28.20;41.47;94513.81;5021011;28;9079;-62
2022/06/28 07:27:55;;;;;;;;;;;;;;;28.20;41.24;94499.97;4955332;28;7258;-62
2022/06/28 07:30:24;;;;;;;;;;;;;;;28.18;41.44;94496.22;4957361;28;9258;-62
2022/06/28 07:32:50;;;;;;;;;;;;;;;28.17;41.11;94501.00;4957517;28;9105;-62
2022/06/28 07:35:18;;;;;;;;;;;;;;;28.16;41.22;94491.25;4950473;28;9159;-62
2022/06/28 07:37:55;;;;;;;;;;;;;;;28.17;41.27;94505.78;4960276;28;7062;-62
2022/06/28 07:40:23;;;;;;;;;;;;;;;28.16;41.07;94501.53;4948234;28;7264;-62
2022/06/28 07:43:08;;;;;;;;;;;;;;;28.16;41.23;94501.53;4956167;28;9181;-62
2022/06/28 07:45:39;;;;;;;;;;;;;;;28.15;41.54;94495.25;4952504;28;7263;-62
2022/06/28 07:48:18;;;;;;;;;;;;;;;28.14;41.08;94490.25;4966241;28;9087;-62
2022/06/28 07:53:33;;;;;;;;;;;;;;;28.14;40.91;94474.41;5007854;28;9133;-62
2022/06/28 07:56:00;;;;;;;;;;;;;;;28.13;41.11;94463.88;4992015;28;9430;-62
2022/06/28 07:58:26;;;;;;;;;;;;;;;28.13;40.64;94466.63;4978869;28;6884;-62
2022/06/28 08:00:54;;;;;;;;;;;;;;;28.13;41.08;94463.88;5012169;28;7385;-62
2022/06/28 08:03:31;;;;;;;;;;;;;;;28.13;41.32;94455.56;5074594;28;7036;-62
2022/06/28 08:06:14;;;;;;;;;;;;;;;28.12;40.72;94454.09;5084535;28;7002;-62
2022/06/28 08:08:45;;;;;;;;;;;;;;;28.14;41.09;94451.53;5079844;28;9017;-61
2022/06/28 08:11:11;;;;;;;;;;;;;;;28.15;40.74;94444.72;5085742;28;7286;-61
2022/06/28 08:13:37;;;;;;;;;;;;;;;28.13;40.96;94455.56;5065808;28;7353;-61
2022/06/28 08:16:05;;;;;;;;;;;;;;;28.11;40.78;94464.41;5063358;28;7062;-62
2022/06/28 08:18:33;;;;;;;;;;;;;;;28.11;41.08;94461.63;5065400;28;7293;-61
2022/06/28 08:21:01;;;;;;;;;;;;;;;28.09;41.01;94461.41;5065025;28;7751;-62
2022/06/28 08:23:28;;;;;;;;;;;;;;;28.11;40.84;94464.41;5066623;28;6993;-62
2022/06/28 08:25:54;;;;;;;;;;;;;;;28.10;40.78;94456.63;5067885;28;7249;-62
2022/06/28 08:28:23;;;;;;;;;;;;;;;28.13;41.17;94452.81;5082444;28;7403;-62
2022/06/28 08:30:54;;;;;;;;;;;;;;;28.10;40.74;94456.63;5087330;28;6960;-62
2022/06/28 08:33:22;;;;;;;;;;;;;;;28.10;40.84;94460.13;5067819;28;7548;-62
2022/06/28 08:35:48;;;;;;;;;;;;;;;28.10;41.11;94471.19;5069796;28;8691;-62
2022/06/28 08:38:20;;;;;;;;;;;;;;;28.06;41.18;94462.47;5071332;28;7224;-62
2022/06/28 08:41:06;;;;;;;;;;;;;;;28.05;41.80;94468.53;5067651;28;7238;-61
2022/06/28 08:43:34;;;;;;;;;;;;;;;28.06;41.08;94478.28;5064275;28;8504;-61
2022/06/28 08:46:02;;;;;;;;;;;;;;;28.06;41.97;94479.06;5062604;28;7091;-61
2022/06/28 08:48:42;;;;;;;;;;;;;;;28.06;41.47;94489.34;5066962;28;9147;-62
2022/06/28 08:51:30;;;;;;;;;;;;;;;28.04;41.30;94486.38;5076722;28;8817;-62
2022/06/28 08:54:02;;;;;;;;;;;;;;;28.06;41.45;94500.41;5073228;28;7213;-62
2022/06/28 08:56:28;;;;;;;;;;;;;;;28.05;41.54;94491.41;5071435;28;6987;-62
2022/06/28 08:58:58;;;;;;;;;;;;;;;28.05;41.67;94487.88;5071255;28;7169;-62
2022/06/28 09:01:25;;;;;;;;;;;;;;;28.05;41.49;94485.88;5068607;28;6996;-62
2022/06/28 09:03:55;;;;;;;;;;;;;;;28.06;41.60;94478.28;5073294;28;7116;-62
2022/06/28 09:06:28;;;;;;;;;;;;;;;28.04;41.61;94475.31;5069180;28;7060;-62
2022/06/28 09:08:55;;;;;;;;;;;;;;;28.04;41.55;94467.00;5069621;28;7082;-61
2022/06/28 09:11:24;;;;;;;;;;;;;;;28.06;41.30;94462.47;5068173;28;8790;-63
2022/06/28 09:13:55;;;;;;;;;;;;;;;28.06;41.26;94458.94;5085722;28;9220;-63
2022/06/28 09:16:25;;;;;;;;;;;;;;;28.06;42.03;94467.25;5080184;28;8756;-62
2022/06/28 09:18:51;;;;;;;;;;;;;;;28.06;42.19;94475.53;5067217;28;8770;-63
2022/06/28 09:21:45;;;;;;;;;;;;;;;28.07;41.58;94477.03;5065442;28;7265;-63
2022/06/28 09:24:46;;;;;;;;;;;;;;;28.07;41.53;94454.91;5001424;28;7249;-63
2022/06/28 09:27:34;;;;;;;;;;;;;;;28.10;41.55;94451.09;4985481;28;7194;-63
2022/06/28 09:30:03;;;;;;;;;;;;;;;28.10;41.52;94453.88;5004597;28;9715;-63
2022/06/28 09:32:32;;;;;;;;;;;;;;;28.12;41.56;94432.69;4987907;28;7263;-60
2022/06/28 09:35:03;;;;;;;;;;;;;;;28.13;41.64;94430.69;4996675;28;7229;-61
2022/06/28 09:37:34;;;;;;;;;;;;;;;28.15;41.28;94414.31;4981385;28;9085;-61
2022/06/28 09:40:15;;;;;;;;;;;;;;;28.16;41.40;94433.16;5002203;28;7668;-60
2022/06/28 09:42:44;;;;;;;;;;;;;;;28.16;41.43;94427.63;4997678;28;7514;-61
2022/06/28 09:45:13;;;;;;;;;;;;;;;28.14;41.37;94421.84;4989789;28;7230;-60
2022/06/28 09:47:45;;;;;;;;;;;;;;;28.16;41.35;94427.63;4982820;28;7179;-60
2022/06/28 09:50:13;;;;;;;;;;;;;;;28.17;41.11;94428.34;4996147;28;7280;-60
2022/06/28 09:52:45;;;;;;;;;;;;;;;28.15;41.14;94439.94;4985489;28;6992;-60
2022/06/28 09:55:19;;;;;;;;;;;;;;;28.13;41.07;94441.75;5003104;28;9396;-60
2022/06/28 09:57:47;;;;;;;;;;;;;;;28.13;41.32;94431.44;4983534;28;9423;-60
2022/06/28 10:00:16;;;;;;;;;;;;;;;28.15;41.26;94430.91;5007128;28;9166;-60
2022/06/28 10:03:08;;;;;;;;;;;;;;;28.15;41.22;94436.44;5086359;28;7124;-62
2022/06/28 10:05:41;;;;;;;;;;;;;;;28.16;41.37;94435.16;5066653;28;7198;-62
2022/06/28 10:08:09;;;;;;;;;;;;;;;28.13;40.98;94445.25;5083246;28;7200;-62
2022/06/28 10:10:45;;;;;;;;;;;;;;;28.15;41.18;94450.25;5070831;28;7276;-62
2022/06/28 10:16:31;;;;;;;;;;;;;;;28.15;41.36;94437.19;5067688;28;7208;-62
2022/06/28 10:19:08;;;;;;;;;;;;;;;28.15;41.12;94448.25;5014501;28;7282;-63
2022/06/28 10:21:48;;;;;;;;;;;;;;;28.17;41.52;94450.47;5007026;28;7292;-62
2022/06/28 10:24:14;;;;;;;;;;;;;;;28.16;40.96;94444.22;5002446;28;7288;-62
2022/06/28 10:27:14;;;;;;;;;;;;;;;28.17;41.22;94444.94;5019348;28;9304;-62
2022/06/28 10:30:08;;;;;;;;;;;;;;;28.15;41.08;94448.25;5002409;28;7000;-62
2022/06/28 10:33:24;;;;;;;;;;;;;;;28.16;41.25;94437.94;5019497;28;8661;-62
2022/06/28 10:35:53;;;;;;;;;;;;;;;28.14;41.06;94432.19;5010549;28;8723;-62
2022/06/28 10:38:19;;;;;;;;;;;;;;;28.14;41.38;94421.13;5016172;28;9444;-61
2022/06/28 10:40:49;;;;;;;;;;;;;;;28.12;41.46;94415.38;5000520;28;7237;-62
2022/06/28 10:43:45;;;;;;;;;;;;;;;28.13;41.44;94419.63;4989051;28;9304;-62
2022/06/28 10:46:12;;;;;;;;;;;;;;;28.13;41.34;94422.38;4981417;28;7281;-61
2022/06/28 10:48:50;;;;;;;;;;;;;;;28.14;41.31;94410.06;4959909;28;6971;-62
2022/06/28 10:51:20;;;;;;;;;;;;;;;28.13;41.54;94397.50;4979352;28;9095;-62
2022/06/28 10:54:00;;;;;;;;;;;;;;;28.13;41.25;94389.97;4957485;28;9475;-62
2022/06/28 10:56:37;;;;;;;;;;;;;;;28.12;41.40;94396.75;4979719;28;7227;-62
2022/06/28 10:59:12;;;;;;;;;;;;;;;28.10;41.46;94390.28;4998960;28;7255;-62
2022/06/28 11:01:40;;;;;;;;;;;;;;;28.10;41.50;94395.81;4975370;28;7466;-62
2022/06/28 11:04:11;;;;;;;;;;;;;;;28.08;41.93;94407.38;4996750;28;7209;-62
2022/06/28 11:06:43;;;;;;;;;;;;;;;28.09;41.66;94406.13;5004543;28;9104;-62
2022/06/28 11:09:38;;;;;;;;;;;;;;;28.08;41.93;94410.13;4985501;28;7172;-62
2022/06/28 11:12:10;;;;;;;;;;;;;;;28.12;42.12;94421.63;4983663;28;8727;-62
2022/06/28 11:14:46;;;;;;;;;;;;;;;28.14;41.53;94424.63;4997495;28;7245;-62
2022/06/28 11:17:17;;;;;;;;;;;;;;;28.14;41.56;94421.13;4997871;28;7344;-61
2022/06/28 11:19:54;;;;;;;;;;;;;;;28.12;41.45;94409.84;4985847;28;8018;-61
2022/06/28 11:22:28;;;;;;;;;;;;;;;28.12;41.64;94416.09;5025833;28;7452;-62
2022/06/28 11:25:01;;;;;;;;;;;;;;;28.11;41.78;94400.03;5081295;28;7020;-61
2022/06/28 11:27:53;;;;;;;;;;;;;;;28.12;41.70;94396.03;5061612;28;9459;-62
2022/06/28 11:30:23;;;;;;;;;;;;;;;28.10;41.95;94385.47;5064526;28;7078;-62
2022/06/28 11:32:53;;;;;;;;;;;;;;;28.09;41.77;94386.75;5070867;28;7659;-62
2022/06/28 11:35:32;;;;;;;;;;;;;;;28.09;41.75;94377.72;5075449;28;7383;-62
2022/06/28 11:38:00;;;;;;;;;;;;;;;28.08;41.58;94390.78;5082567;28;8746;-62
2022/06/28 11:41:10;;;;;;;;;;;;;;;28.11;41.53;94414.63;5073269;28;7074;-62
2022/06/28 11:43:37;;;;;;;;;;;;;;;28.14;41.68;94418.38;5084134;28;9065;-61
2022/06/28 11:46:37;;;;;;;;;;;;;;;28.13;41.57;94416.84;5065533;28;7026;-62
2022/06/28 11:49:03;;;;;;;;;;;;;;;28.12;41.65;94412.63;5061327;28;8765;-62
2022/06/28 11:51:41;;;;;;;;;;;;;;;28.11;41.68;94414.63;5059372;28;7429;-62
2022/06/28 11:54:08;;;;;;;;;;;;;;;28.13;41.09;94412.06;5064704;28;7525;-62
2022/06/28 11:56:45;;;;;;;;;;;;;;;28.15;41.50;94417.06;5074699;28;8842;-62
2022/06/28 11:59:13;;;;;;;;;;;;;;;28.16;41.22;94413.03;5076608;28;7299;-62
2022/06/28 12:01:41;;;;;;;;;;;;;;;28.13;41.83;94409.31;5081219;28;8786;-62
2022/06/28 12:04:26;;;;;;;;;;;;;;;28.15;41.28;94392.19;5061967;28;7365;-62
2022/06/28 12:07:03;;;;;;;;;;;;;;;28.16;41.67;94375.09;5080687;28;6972;-63
2022/06/28 12:09:44;;;;;;;;;;;;;;;28.16;41.52;94382.63;5083266;28;9035;-62
2022/06/28 12:12:10;;;;;;;;;;;;;;;28.16;41.40;94383.38;5066026;28;7220;-62
2022/06/28 12:15:10;;;;;;;;;;;;;;;28.17;41.88;94386.88;5084478;28;7488;-62
2022/06/28 12:18:00;;;;;;;;;;;;;;;28.14;41.05;94393.47;4998529;28;7255;-62
2022/06/28 12:20:27;;;;;;;;;;;;;;;28.14;41.23;94401.78;5001134;28;7182;-62
2022/06/28 12:22:58;;;;;;;;;;;;;;;28.14;41.67;94399.00;5018654;28;9081;-62
2022/06/28 12:25:28;;;;;;;;;;;;;;;28.16;41.42;94377.84;5016708;28;9094;-62
2022/06/28 12:28:06;;;;;;;;;;;;;;;28.17;41.27;94373.03;4996570;28;7557;-61
2022/06/28 12:30:51;;;;;;;;;;;;;;;28.16;41.73;94368.81;5001624;28;9473;-62
2022/06/28 12:33:17;;;;;;;;;;;;;;;28.18;41.46;94363.47;5008593;28;7270;-62
2022/06/28 12:35:43;;;;;;;;;;;;;;;28.17;41.74;94351.66;5017772;28;7080;-61
2022/06/28 12:38:09;;;;;;;;;;;;;;;28.18;41.64;94369.00;5008677;28;9087;-61
2022/06/28 12:40:35;;;;;;;;;;;;;;;28.12;42.26;94366.31;4999993;28;7189;-62
2022/06/28 12:43:04;;;;;;;;;;;;;;;28.09;42.66;94361.13;5002223;28;7240;-62
2022/06/28 12:45:30;;;;;;;;;;;;;;;28.09;42.25;94361.13;4995256;28;7005;-62
2022/06/28 12:47:57;;;;;;;;;;;;;;;28.07;42.43;94349.84;5004116;28;6940;-62
2022/06/28 12:50:25;;;;;;;;;;;;;;;28.05;42.36;94342.09;5005747;28;9624;-62
2022/06/28 12:52:53;;;;;;;;;;;;;;;28.04;42.35;94348.88;5026189;28;6875;-62
2022/06/28 12:55:21;;;;;;;;;;;;;;;28.03;41.72;94357.72;5062975;28;6863;-62
2022/06/28 12:57:48;;;;;;;;;;;;;;;28.03;41.97;94368.75;5064926;28;8878;-62
2022/06/28 13:00:17;;;;;;;;;;;;;;;28.06;42.45;94384.28;5063724;28;9566;-62
2022/06/28 13:02:49;;;;;;;;;;;;;;;28.07;42.08;94383.78;5057320;28;8221;-62
2022/06/28 13:05:42;;;;;;;;;;;;;;;28.10;41.95;94376.44;5081749;28;7074;-62
2022/06/28 13:08:21;;;;;;;;;;;;;;;28.09;42.20;94369.41;4991701;28;6956;-62
2022/06/28 13:10:58;;;;;;;;;;;;;;;28.12;41.70;94374.63;4992507;28;7361;-62
2022/06/28 13:13:38;;;;;;;;;;;;;;;28.15;41.84;94381.13;5005873;28;7252;-62
2022/06/28 13:16:16;;;;;;;;;;;;;;;28.15;42.22;94376.34;5002812;28;8236;-62
2022/06/28 13:19:03;;;;;;;;;;;;;;;28.17;41.74;94381.34;5007760;28;6969;-62
2022/06/28 13:21:38;;;;;;;;;;;;;;;28.18;41.45;94382.84;4989394;28;8781;-61
2022/06/28 13:24:04;;;;;;;;;;;;;;;28.18;41.85;94385.59;4992058;28;7227;-61
2022/06/28 13:26:46;;;;;;;;;;;;;;;28.18;41.67;94369.00;5010597;28;7030;-61
2022/06/28 13:29:14;;;;;;;;;;;;;;;28.18;41.81;94364.25;4994778;28;7398;-62
2022/06/28 13:31:50;;;;;;;;;;;;;;;28.18;41.84;94357.94;4991273;28;9250;-62
2022/06/28 13:34:30;;;;;;;;;;;;;;;28.17;41.88;94370.28;5007852;28;9498;-62
2022/06/28 13:37:00;;;;;;;;;;;;;;;28.18;41.62;94374.53;4994920;28;8751;-62
2022/06/28 13:39:55;;;;;;;;;;;;;;;28.18;41.64;94377.31;5015630;28;7080;-61
2022/06/28 13:42:35;;;;;;;;;;;;;;;28.14;41.75;94379.66;5006609;28;7997;-62